sensor_id;sensor_type;location;lat;lon;timestamp;pressure;altitude;pressure_sealevel;temperature
64904;BMP280;51401;48.882;12.598;2023-09-19T00:00:23;64114.28;;;-137.53
64904;BMP280;51401;48.882;12.598;2023-09-19T00:02:57;64116.25;;;-137.53
64904;BMP280;51401;48.882;12.598;2023-09-19T00:05:25;64118.25;;;-137.53
64904;BMP280;51401;48.882;12.598;2023-09-19T00:07:53;64120.25;;;-137.53
64904;BMP280;51401;48.882;12.598;2023-09-19T00:10:23;64116.25;;;-137.53
64904;BMP280;51401;48.882;12.598;2023-09-19T00:12:54;64118.25;;;-137.53
64904;BMP280;51401;48.882;12.598;2023-09-19T00:15:24;64116.25;;;-137.53
64904;BMP280;51401;48.882;12.598;2023-09-19T00:17:51;64120.25;;;-137.53
64904;BMP280;51401;48.882;12.598;2023-09-19T00:20:17;64118.25;;;-137.53
64904;BMP280;51401;48.882;12.598;2023-09-19T00:22:43;64116.25;;;-137.53
64904;BMP280;51401;48.882;12.598;2023-09-19T00:25:09;64120.25;;;-137.53
64904;BMP280;51401;48.882;12.598;2023-09-19T00:27:38;64118.25;;;-137.53
64904;BMP280;51401;48.882;12.598;2023-09-19T00:30:09;64120.25;;;-137.53
64904;BMP280;51401;48.882;12.598;2023-09-19T00:32:40;64116.25;;;-137.53
64904;BMP280;51401;48.882;12.598;2023-09-19T00:35:06;64118.25;;;-137.53
64904;BMP280;51401;48.882;12.598;2023-09-19T00:37:33;64118.25;;;-137.53
64904;BMP280;51401;48.882;12.598;2023-09-19T00:39:59;64118.25;;;-137.53
64904;BMP280;51401;48.882;12.598;2023-09-19T00:42:24;64120.25;;;-137.53
64904;BMP280;51401;48.882;12.598;2023-09-19T00:44:51;64116.25;;;-137.53
64904;BMP280;51401;48.882;12.598;2023-09-19T00:47:18;64116.25;;;-137.53
64904;BMP280;51401;48.882;12.598;2023-09-19T00:49:46;64112.28;;;-137.53
64904;BMP280;51401;48.882;12.598;2023-09-19T00:52:18;64116.25;;;-137.53
64904;BMP280;51401;48.882;12.598;2023-09-19T00:54:47;64118.25;;;-137.53
64904;BMP280;51401;48.882;12.598;2023-09-19T00:57:13;64116.25;;;-137.53
64904;BMP280;51401;48.882;12.598;2023-09-19T00:59:40;64118.25;;;-137.53
64904;BMP280;51401;48.882;12.598;2023-09-19T01:02:06;64116.25;;;-137.53
64904;BMP280;51401;48.882;12.598;2023-09-19T01:04:31;64118.25;;;-137.53
64904;BMP280;51401;48.882;12.598;2023-09-19T01:06:57;64120.25;;;-137.53
64904;BMP280;51401;48.882;12.598;2023-09-19T01:09:23;64120.25;;;-137.53
64904;BMP280;51401;48.882;12.598;2023-09-19T01:11:50;64116.25;;;-137.53
64904;BMP280;51401;48.882;12.598;2023-09-19T01:14:39;64118.25;;;-137.53
64904;BMP280;51401;48.882;12.598;2023-09-19T01:17:23;64118.25;;;-137.53
64904;BMP280;51401;48.882;12.598;2023-09-19T01:22:32;64116.25;;;-137.53
64904;BMP280;51401;48.882;12.598;2023-09-19T01:25:20;64116.25;;;-137.53
64904;BMP280;51401;48.882;12.598;2023-09-19T01:28:52;64118.25;;;-137.53
64904;BMP280;51401;48.882;12.598;2023-09-19T01:30:58;64118.25;;;-137.53
64904;BMP280;51401;48.882;12.598;2023-09-19T01:33:25;64120.25;;;-137.53
64904;BMP280;51401;48.882;12.598;2023-09-19T01:35:51;64114.28;;;-137.53
64904;BMP280;51401;48.882;12.598;2023-09-19T01:38:18;64118.25;;;-137.53
64904;BMP280;51401;48.882;12.598;2023-09-19T01:40:57;64116.25;;;-137.53
64904;BMP280;51401;48.882;12.598;2023-09-19T01:43:39;64118.25;;;-137.53
64904;BMP280;51401;48.882;12.598;2023-09-19T01:49:04;64118.25;;;-137.53
64904;BMP280;51401;48.882;12.598;2023-09-19T01:54:12;64116.25;;;-137.53
64904;BMP280;51401;48.882;12.598;2023-09-19T01:56:52;64116.25;;;-137.53
64904;BMP280;51401;48.882;12.598;2023-09-19T01:59:25;64116.25;;;-137.53
64904;BMP280;51401;48.882;12.598;2023-09-19T02:01:54;64118.25;;;-137.53
64904;BMP280;51401;48.882;12.598;2023-09-19T02:04:20;64116.25;;;-137.53
64904;BMP280;51401;48.882;12.598;2023-09-19T02:06:45;64114.28;;;-137.53
64904;BMP280;51401;48.882;12.598;2023-09-19T02:09:13;64118.25;;;-137.53
64904;BMP280;51401;48.882;12.598;2023-09-19T02:11:39;64118.25;;;-137.53
64904;BMP280;51401;48.882;12.598;2023-09-19T02:14:06;64112.28;;;-137.53
64904;BMP280;51401;48.882;12.598;2023-09-19T02:16:33;64118.25;;;-137.53
64904;BMP280;51401;48.882;12.598;2023-09-19T02:18:59;64118.25;;;-137.53
64904;BMP280;51401;48.882;12.598;2023-09-19T02:21:25;64120.25;;;-137.53
64904;BMP280;51401;48.882;12.598;2023-09-19T02:23:54;64116.25;;;-137.53
64904;BMP280;51401;48.882;12.598;2023-09-19T02:26:20;64118.25;;;-137.53
64904;BMP280;51401;48.882;12.598;2023-09-19T02:28:45;64116.25;;;-137.53
64904;BMP280;51401;48.882;12.598;2023-09-19T02:31:11;64116.25;;;-137.53
64904;BMP280;51401;48.882;12.598;2023-09-19T02:33:36;64116.25;;;-137.53
64904;BMP280;51401;48.882;12.598;2023-09-19T02:36:02;64116.25;;;-137.53
64904;BMP280;51401;48.882;12.598;2023-09-19T02:38:29;64114.28;;;-137.53
64904;BMP280;51401;48.882;12.598;2023-09-19T02:40:54;64118.25;;;-137.53
64904;BMP280;51401;48.882;12.598;2023-09-19T02:43:22;64118.25;;;-137.53
64904;BMP280;51401;48.882;12.598;2023-09-19T02:45:48;64118.25;;;-137.53
64904;BMP280;51401;48.882;12.598;2023-09-19T02:48:19;64120.25;;;-137.53
64904;BMP280;51401;48.882;12.598;2023-09-19T02:50:44;64116.25;;;-137.53
64904;BMP280;51401;48.882;12.598;2023-09-19T02:53:10;64116.25;;;-137.53
64904;BMP280;51401;48.882;12.598;2023-09-19T02:55:39;64118.25;;;-137.53
64904;BMP280;51401;48.882;12.598;2023-09-19T02:58:08;64116.25;;;-137.53
64904;BMP280;51401;48.882;12.598;2023-09-19T03:00:39;64118.25;;;-137.53
64904;BMP280;51401;48.882;12.598;2023-09-19T03:03:07;64116.25;;;-137.53
64904;BMP280;51401;48.882;12.598;2023-09-19T03:05:34;64116.25;;;-137.53
64904;BMP280;51401;48.882;12.598;2023-09-19T03:07:59;64116.25;;;-137.53
64904;BMP280;51401;48.882;12.598;2023-09-19T03:10:28;64116.25;;;-137.53
64904;BMP280;51401;48.882;12.598;2023-09-19T03:12:54;64116.25;;;-137.53
64904;BMP280;51401;48.882;12.598;2023-09-19T03:15:20;64116.25;;;-137.53
64904;BMP280;51401;48.882;12.598;2023-09-19T03:17:47;64114.28;;;-137.53
64904;BMP280;51401;48.882;12.598;2023-09-19T03:20:13;64118.25;;;-137.53
64904;BMP280;51401;48.882;12.598;2023-09-19T03:22:39;64118.25;;;-137.53
64904;BMP280;51401;48.882;12.598;2023-09-19T03:25:06;64114.28;;;-137.53
64904;BMP280;51401;48.882;12.598;2023-09-19T03:27:34;64116.25;;;-137.53
64904;BMP280;51401;48.882;12.598;2023-09-19T03:29:59;64118.25;;;-137.53
64904;BMP280;51401;48.882;12.598;2023-09-19T03:32:25;64114.28;;;-137.53
64904;BMP280;51401;48.882;12.598;2023-09-19T03:34:50;64116.25;;;-137.53
64904;BMP280;51401;48.882;12.598;2023-09-19T03:37:18;64114.28;;;-137.53
64904;BMP280;51401;48.882;12.598;2023-09-19T03:39:44;64116.25;;;-137.53
64904;BMP280;51401;48.882;12.598;2023-09-19T03:42:09;64112.28;;;-137.53
64904;BMP280;51401;48.882;12.598;2023-09-19T03:44:35;64116.25;;;-137.53
64904;BMP280;51401;48.882;12.598;2023-09-19T03:47:00;64114.28;;;-137.53
64904;BMP280;51401;48.882;12.598;2023-09-19T03:49:26;64118.25;;;-137.53
64904;BMP280;51401;48.882;12.598;2023-09-19T03:51:51;64116.25;;;-137.53
64904;BMP280;51401;48.882;12.598;2023-09-19T03:54:17;64120.25;;;-137.53
64904;BMP280;51401;48.882;12.598;2023-09-19T03:56:45;64118.25;;;-137.53
64904;BMP280;51401;48.882;12.598;2023-09-19T03:59:10;64118.25;;;-137.53
64904;BMP280;51401;48.882;12.598;2023-09-19T04:01:37;64114.28;;;-137.53
64904;BMP280;51401;48.882;12.598;2023-09-19T04:04:02;64118.25;;;-137.53
64904;BMP280;51401;48.882;12.598;2023-09-19T04:06:34;64122.22;;;-137.53
64904;BMP280;51401;48.882;12.598;2023-09-19T04:09:00;64118.25;;;-137.53
64904;BMP280;51401;48.882;12.598;2023-09-19T04:11:26;64116.25;;;-137.53
64904;BMP280;51401;48.882;12.598;2023-09-19T04:13:52;64116.25;;;-137.53
64904;BMP280;51401;48.882;12.598;2023-09-19T04:16:17;64114.28;;;-137.53
64904;BMP280;51401;48.882;12.598;2023-09-19T04:18:43;64116.25;;;-137.53
64904;BMP280;51401;48.882;12.598;2023-09-19T04:21:08;64114.28;;;-137.53
64904;BMP280;51401;48.882;12.598;2023-09-19T04:23:34;64114.28;;;-137.53
64904;BMP280;51401;48.882;12.598;2023-09-19T04:26:00;64116.25;;;-137.53
64904;BMP280;51401;48.882;12.598;2023-09-19T04:28:25;64116.25;;;-137.53
64904;BMP280;51401;48.882;12.598;2023-09-19T04:30:52;64116.25;;;-137.53
64904;BMP280;51401;48.882;12.598;2023-09-19T04:33:18;64118.25;;;-137.53
64904;BMP280;51401;48.882;12.598;2023-09-19T04:35:43;64116.25;;;-137.53
64904;BMP280;51401;48.882;12.598;2023-09-19T04:38:09;64116.25;;;-137.53
64904;BMP280;51401;48.882;12.598;2023-09-19T04:40:34;64118.25;;;-137.53
64904;BMP280;51401;48.882;12.598;2023-09-19T04:43:00;64120.25;;;-137.53
64904;BMP280;51401;48.882;12.598;2023-09-19T04:45:27;64116.25;;;-137.53
64904;BMP280;51401;48.882;12.598;2023-09-19T04:47:53;64118.25;;;-137.53
64904;BMP280;51401;48.882;12.598;2023-09-19T04:50:19;64116.25;;;-137.53
64904;BMP280;51401;48.882;12.598;2023-09-19T04:52:49;64116.25;;;-137.53
64904;BMP280;51401;48.882;12.598;2023-09-19T04:55:16;64116.25;;;-137.53
64904;BMP280;51401;48.882;12.598;2023-09-19T04:57:48;64116.25;;;-137.53
64904;BMP280;51401;48.882;12.598;2023-09-19T05:00:19;64116.25;;;-137.53
64904;BMP280;51401;48.882;12.598;2023-09-19T05:02:51;64116.25;;;-137.53
64904;BMP280;51401;48.882;12.598;2023-09-19T05:05:17;64116.25;;;-137.53
64904;BMP280;51401;48.882;12.598;2023-09-19T05:07:45;64116.25;;;-137.53
64904;BMP280;51401;48.882;12.598;2023-09-19T05:10:11;64120.25;;;-137.53
64904;BMP280;51401;48.882;12.598;2023-09-19T05:12:38;64116.25;;;-137.53
64904;BMP280;51401;48.882;12.598;2023-09-19T05:15:07;64116.25;;;-137.53
64904;BMP280;51401;48.882;12.598;2023-09-19T05:17:33;64114.28;;;-137.53
64904;BMP280;51401;48.882;12.598;2023-09-19T05:19:59;64116.25;;;-137.53
64904;BMP280;51401;48.882;12.598;2023-09-19T05:22:31;64114.28;;;-137.53
64904;BMP280;51401;48.882;12.598;2023-09-19T05:24:57;64116.25;;;-137.53
64904;BMP280;51401;48.882;12.598;2023-09-19T05:27:22;64116.25;;;-137.53
64904;BMP280;51401;48.882;12.598;2023-09-19T05:29:48;64116.25;;;-137.53
64904;BMP280;51401;48.882;12.598;2023-09-19T05:32:15;64116.25;;;-137.53
64904;BMP280;51401;48.882;12.598;2023-09-19T05:34:41;64116.25;;;-137.53
64904;BMP280;51401;48.882;12.598;2023-09-19T05:37:06;64116.25;;;-137.53
64904;BMP280;51401;48.882;12.598;2023-09-19T05:39:32;64114.28;;;-137.53
64904;BMP280;51401;48.882;12.598;2023-09-19T05:41:57;64116.25;;;-137.53
64904;BMP280;51401;48.882;12.598;2023-09-19T05:44:23;64116.25;;;-137.53
64904;BMP280;51401;48.882;12.598;2023-09-19T05:46:49;64116.25;;;-137.53
64904;BMP280;51401;48.882;12.598;2023-09-19T05:49:14;64116.25;;;-137.53
64904;BMP280;51401;48.882;12.598;2023-09-19T05:51:41;64116.25;;;-137.53
64904;BMP280;51401;48.882;12.598;2023-09-19T05:54:06;64112.28;;;-137.53
64904;BMP280;51401;48.882;12.598;2023-09-19T05:56:31;64112.28;;;-137.53
64904;BMP280;51401;48.882;12.598;2023-09-19T05:58:57;64116.25;;;-137.53
64904;BMP280;51401;48.882;12.598;2023-09-19T06:01:22;64114.28;;;-137.53
64904;BMP280;51401;48.882;12.598;2023-09-19T06:03:48;64114.28;;;-137.53
64904;BMP280;51401;48.882;12.598;2023-09-19T06:06:13;64112.28;;;-137.53
64904;BMP280;51401;48.882;12.598;2023-09-19T06:08:39;64114.28;;;-137.53
64904;BMP280;51401;48.882;12.598;2023-09-19T06:11:04;64112.28;;;-137.53
64904;BMP280;51401;48.882;12.598;2023-09-19T06:13:32;64112.28;;;-137.53
64904;BMP280;51401;48.882;12.598;2023-09-19T06:15:58;64114.28;;;-137.53
64904;BMP280;51401;48.882;12.598;2023-09-19T06:18:25;64112.28;;;-137.53
64904;BMP280;51401;48.882;12.598;2023-09-19T06:20:51;64114.28;;;-137.53
64904;BMP280;51401;48.882;12.598;2023-09-19T06:23:17;64112.28;;;-137.53
64904;BMP280;51401;48.882;12.598;2023-09-19T06:25:43;64114.28;;;-137.53
64904;BMP280;51401;48.882;12.598;2023-09-19T06:28:08;64112.28;;;-137.53
64904;BMP280;51401;48.882;12.598;2023-09-19T06:30:37;64114.28;;;-137.53
64904;BMP280;51401;48.882;12.598;2023-09-19T06:33:05;64112.28;;;-137.53
64904;BMP280;51401;48.882;12.598;2023-09-19T06:35:32;64108.31;;;-137.53
64904;BMP280;51401;48.882;12.598;2023-09-19T06:37:58;64110.31;;;-137.53
64904;BMP280;51401;48.882;12.598;2023-09-19T06:40:23;64106.34;;;-137.53
64904;BMP280;51401;48.882;12.598;2023-09-19T06:42:51;64108.31;;;-137.53
64904;BMP280;51401;48.882;12.598;2023-09-19T06:45:17;64108.31;;;-137.53
64904;BMP280;51401;48.882;12.598;2023-09-19T06:47:47;64106.34;;;-137.53
64904;BMP280;51401;48.882;12.598;2023-09-19T06:50:16;64108.31;;;-137.53
64904;BMP280;51401;48.882;12.598;2023-09-19T06:52:47;64100.38;;;-137.53
64904;BMP280;51401;48.882;12.598;2023-09-19T06:55:18;64100.38;;;-137.53
64904;BMP280;51401;48.882;12.598;2023-09-19T06:57:44;64102.38;;;-137.53
64904;BMP280;51401;48.882;12.598;2023-09-19T07:00:10;64100.38;;;-137.53
64904;BMP280;51401;48.882;12.598;2023-09-19T07:02:43;64098.41;;;-137.53
64904;BMP280;51401;48.882;12.598;2023-09-19T07:05:09;64098.41;;;-137.53
64904;BMP280;51401;48.882;12.598;2023-09-19T07:07:35;64096.41;;;-137.53
64904;BMP280;51401;48.882;12.598;2023-09-19T07:10:03;64096.41;;;-137.53
64904;BMP280;51401;48.882;12.598;2023-09-19T07:12:33;64094.44;;;-137.53
64904;BMP280;51401;48.882;12.598;2023-09-19T07:14:58;64096.41;;;-137.53
64904;BMP280;51401;48.882;12.598;2023-09-19T07:17:24;64098.41;;;-137.53
64904;BMP280;51401;48.882;12.598;2023-09-19T07:19:49;64096.41;;;-137.53
64904;BMP280;51401;48.882;12.598;2023-09-19T07:22:18;64094.44;;;-137.53
64904;BMP280;51401;48.882;12.598;2023-09-19T07:24:43;64100.38;;;-137.53
64904;BMP280;51401;48.882;12.598;2023-09-19T07:27:08;64100.38;;;-137.53
64904;BMP280;51401;48.882;12.598;2023-09-19T07:29:34;64100.38;;;-137.53
64904;BMP280;51401;48.882;12.598;2023-09-19T07:31:59;64106.34;;;-137.53
64904;BMP280;51401;48.882;12.598;2023-09-19T07:34:25;64100.38;;;-137.53
64904;BMP280;51401;48.882;12.598;2023-09-19T07:36:50;64108.31;;;-137.53
64904;BMP280;51401;48.882;12.598;2023-09-19T07:39:16;64102.38;;;-137.53
64904;BMP280;51401;48.882;12.598;2023-09-19T07:41:41;64106.34;;;-137.53
64904;BMP280;51401;48.882;12.598;2023-09-19T07:44:07;64108.31;;;-137.53
64904;BMP280;51401;48.882;12.598;2023-09-19T07:46:32;64098.41;;;-137.53
64904;BMP280;51401;48.882;12.598;2023-09-19T07:48:58;64102.38;;;-137.53
64904;BMP280;51401;48.882;12.598;2023-09-19T07:51:24;64100.38;;;-137.53
64904;BMP280;51401;48.882;12.598;2023-09-19T07:53:49;64100.38;;;-137.53
64904;BMP280;51401;48.882;12.598;2023-09-19T07:56:14;64100.38;;;-137.53
64904;BMP280;51401;48.882;12.598;2023-09-19T07:58:40;64100.38;;;-137.53
64904;BMP280;51401;48.882;12.598;2023-09-19T08:01:10;64096.41;;;-137.53
64904;BMP280;51401;48.882;12.598;2023-09-19T08:03:36;64098.41;;;-137.53
64904;BMP280;51401;48.882;12.598;2023-09-19T08:06:09;64096.41;;;-137.53
64904;BMP280;51401;48.882;12.598;2023-09-19T08:08:36;64096.41;;;-137.53
64904;BMP280;51401;48.882;12.598;2023-09-19T08:11:03;64092.44;;;-137.53
64904;BMP280;51401;48.882;12.598;2023-09-19T08:13:35;64094.44;;;-137.53
64904;BMP280;51401;48.882;12.598;2023-09-19T08:16:04;64098.41;;;-137.53
64904;BMP280;51401;48.882;12.598;2023-09-19T08:18:30;64094.44;;;-137.53
64904;BMP280;51401;48.882;12.598;2023-09-19T08:20:55;64096.41;;;-137.53
64904;BMP280;51401;48.882;12.598;2023-09-19T08:23:23;64100.38;;;-137.53
64904;BMP280;51401;48.882;12.598;2023-09-19T08:25:49;64098.41;;;-137.53
64904;BMP280;51401;48.882;12.598;2023-09-19T08:28:14;64100.38;;;-137.53
64904;BMP280;51401;48.882;12.598;2023-09-19T08:30:47;64100.38;;;-137.53
64904;BMP280;51401;48.882;12.598;2023-09-19T08:33:12;64100.38;;;-137.53
64904;BMP280;51401;48.882;12.598;2023-09-19T08:35:40;64100.38;;;-137.53
64904;BMP280;51401;48.882;12.598;2023-09-19T08:38:06;64100.38;;;-137.53
64904;BMP280;51401;48.882;12.598;2023-09-19T08:40:32;64098.41;;;-137.53
64904;BMP280;51401;48.882;12.598;2023-09-19T08:42:59;64098.41;;;-137.53
64904;BMP280;51401;48.882;12.598;2023-09-19T08:45:26;64100.38;;;-137.53
64904;BMP280;51401;48.882;12.598;2023-09-19T08:48:22;64098.41;;;-137.53
64904;BMP280;51401;48.882;12.598;2023-09-19T08:51:03;64096.41;;;-137.53
64904;BMP280;51401;48.882;12.598;2023-09-19T08:53:42;64096.41;;;-137.53
64904;BMP280;51401;48.882;12.598;2023-09-19T08:56:09;64092.44;;;-137.53
64904;BMP280;51401;48.882;12.598;2023-09-19T08:58:46;64096.41;;;-137.53
64904;BMP280;51401;48.882;12.598;2023-09-19T09:01:17;64094.44;;;-137.53
64904;BMP280;51401;48.882;12.598;2023-09-19T09:03:51;64092.44;;;-137.53
64904;BMP280;51401;48.882;12.598;2023-09-19T09:06:16;64092.44;;;-137.53
64904;BMP280;51401;48.882;12.598;2023-09-19T09:08:43;64086.47;;;-137.53
64904;BMP280;51401;48.882;12.598;2023-09-19T09:11:10;64086.47;;;-137.53
64904;BMP280;51401;48.882;12.598;2023-09-19T09:13:36;64088.47;;;-137.53
64904;BMP280;51401;48.882;12.598;2023-09-19T09:16:02;64088.47;;;-137.53
64904;BMP280;51401;48.882;12.598;2023-09-19T09:18:28;64088.47;;;-137.53
64904;BMP280;51401;48.882;12.598;2023-09-19T09:20:55;64092.44;;;-137.53
64904;BMP280;51401;48.882;12.598;2023-09-19T09:23:21;64090.44;;;-137.53
64904;BMP280;51401;48.882;12.598;2023-09-19T09:25:51;64088.47;;;-137.53
64904;BMP280;51401;48.882;12.598;2023-09-19T09:28:25;64096.41;;;-137.53
64904;BMP280;51401;48.882;12.598;2023-09-19T09:30:50;64096.41;;;-137.53
64904;BMP280;51401;48.882;12.598;2023-09-19T09:33:17;64096.41;;;-137.53
64904;BMP280;51401;48.882;12.598;2023-09-19T09:35:59;64096.41;;;-137.53
64904;BMP280;51401;48.882;12.598;2023-09-19T09:38:47;64096.41;;;-137.53
64904;BMP280;51401;48.882;12.598;2023-09-19T09:41:15;64096.41;;;-137.53
64904;BMP280;51401;48.882;12.598;2023-09-19T09:43:52;64096.41;;;-137.53
64904;BMP280;51401;48.882;12.598;2023-09-19T09:46:19;64100.38;;;-137.53
64904;BMP280;51401;48.882;12.598;2023-09-19T09:48:58;64102.38;;;-137.53
64904;BMP280;51401;48.882;12.598;2023-09-19T09:51:44;64100.38;;;-137.53
64904;BMP280;51401;48.882;12.598;2023-09-19T09:54:16;64098.41;;;-137.53
64904;BMP280;51401;48.882;12.598;2023-09-19T09:56:58;64096.41;;;-137.53
64904;BMP280;51401;48.882;12.598;2023-09-19T09:59:48;64100.38;;;-137.53
64904;BMP280;51401;48.882;12.598;2023-09-19T10:02:16;64100.38;;;-137.53
64904;BMP280;51401;48.882;12.598;2023-09-19T10:04:49;64100.38;;;-137.53
64904;BMP280;51401;48.882;12.598;2023-09-19T10:07:31;64106.34;;;-137.53
64904;BMP280;51401;48.882;12.598;2023-09-19T10:10:29;64108.31;;;-137.53
64904;BMP280;51401;48.882;12.598;2023-09-19T10:13:03;64100.38;;;-137.53
64904;BMP280;51401;48.882;12.598;2023-09-19T10:15:32;64106.34;;;-137.53
64904;BMP280;51401;48.882;12.598;2023-09-19T10:18:01;64098.41;;;-137.53
64904;BMP280;51401;48.882;12.598;2023-09-19T10:20:30;64106.34;;;-137.53
64904;BMP280;51401;48.882;12.598;2023-09-19T10:22:56;64100.38;;;-137.53
64904;BMP280;51401;48.882;12.598;2023-09-19T10:25:26;64106.34;;;-137.53
64904;BMP280;51401;48.882;12.598;2023-09-19T10:27:54;64100.38;;;-137.53
64904;BMP280;51401;48.882;12.598;2023-09-19T10:30:22;64110.31;;;-137.53
64904;BMP280;51401;48.882;12.598;2023-09-19T10:32:57;64108.31;;;-137.53
64904;BMP280;51401;48.882;12.598;2023-09-19T10:35:23;64112.28;;;-137.53
64904;BMP280;51401;48.882;12.598;2023-09-19T10:37:50;64112.28;;;-137.53
64904;BMP280;51401;48.882;12.598;2023-09-19T10:40:18;64116.25;;;-137.53
64904;BMP280;51401;48.882;12.598;2023-09-19T10:42:45;64118.25;;;-137.53
64904;BMP280;51401;48.882;12.598;2023-09-19T10:45:15;64116.25;;;-137.53
64904;BMP280;51401;48.882;12.598;2023-09-19T10:47:42;64114.28;;;-137.53
64904;BMP280;51401;48.882;12.598;2023-09-19T10:50:08;64112.28;;;-137.53
64904;BMP280;51401;48.882;12.598;2023-09-19T10:52:40;64112.28;;;-137.53
64904;BMP280;51401;48.882;12.598;2023-09-19T10:55:07;64116.25;;;-137.53
64904;BMP280;51401;48.882;12.598;2023-09-19T10:57:32;64112.28;;;-137.53
64904;BMP280;51401;48.882;12.598;2023-09-19T11:00:08;64114.28;;;-137.53
64904;BMP280;51401;48.882;12.598;2023-09-19T11:06:00;64112.28;;;-137.53
64904;BMP280;51401;48.882;12.598;2023-09-19T11:08:26;64114.28;;;-137.53
64904;BMP280;51401;48.882;12.598;2023-09-19T11:10:52;64112.28;;;-137.53
64904;BMP280;51401;48.882;12.598;2023-09-19T11:13:28;64114.28;;;-137.53
64904;BMP280;51401;48.882;12.598;2023-09-19T11:18:56;64112.28;;;-137.53
64904;BMP280;51401;48.882;12.598;2023-09-19T11:26:42;64116.25;;;-137.53
64904;BMP280;51401;48.882;12.598;2023-09-19T11:29:32;64112.28;;;-137.53
64904;BMP280;51401;48.882;12.598;2023-09-19T11:31:58;64116.25;;;-137.53
64904;BMP280;51401;48.882;12.598;2023-09-19T11:37:02;64108.31;;;-137.53
64904;BMP280;51401;48.882;12.598;2023-09-19T11:39:29;64108.31;;;-137.53
64904;BMP280;51401;48.882;12.598;2023-09-19T11:41:54;64110.31;;;-137.53
64904;BMP280;51401;48.882;12.598;2023-09-19T11:44:33;64108.31;;;-137.53
64904;BMP280;51401;48.882;12.598;2023-09-19T11:47:00;64106.34;;;-137.53
64904;BMP280;51401;48.882;12.598;2023-09-19T11:49:29;64102.38;;;-137.53
64904;BMP280;51401;48.882;12.598;2023-09-19T11:51:55;64108.31;;;-137.53
64904;BMP280;51401;48.882;12.598;2023-09-19T11:54:21;64108.31;;;-137.53
64904;BMP280;51401;48.882;12.598;2023-09-19T11:56:54;64108.31;;;-137.53
64904;BMP280;51401;48.882;12.598;2023-09-19T11:59:24;64108.31;;;-137.53
64904;BMP280;51401;48.882;12.598;2023-09-19T12:01:57;64102.38;;;-137.53
64904;BMP280;51401;48.882;12.598;2023-09-19T12:04:40;64106.34;;;-137.53
64904;BMP280;51401;48.882;12.598;2023-09-19T12:07:15;64106.34;;;-137.53
64904;BMP280;51401;48.882;12.598;2023-09-19T12:09:41;64100.38;;;-137.53
64904;BMP280;51401;48.882;12.598;2023-09-19T12:12:24;64100.38;;;-137.53
64904;BMP280;51401;48.882;12.598;2023-09-19T12:14:54;64100.38;;;-137.53
64904;BMP280;51401;48.882;12.598;2023-09-19T12:17:20;64096.41;;;-137.53
64904;BMP280;51401;48.882;12.598;2023-09-19T12:19:53;64096.41;;;-137.53
64904;BMP280;51401;48.882;12.598;2023-09-19T12:22:18;64100.38;;;-137.53
64904;BMP280;51401;48.882;12.598;2023-09-19T12:24:45;64096.41;;;-137.53
64904;BMP280;51401;48.882;12.598;2023-09-19T12:27:12;64100.38;;;-137.53
64904;BMP280;51401;48.882;12.598;2023-09-19T12:29:43;64100.38;;;-137.53
64904;BMP280;51401;48.882;12.598;2023-09-19T12:32:09;64096.41;;;-137.53
64904;BMP280;51401;48.882;12.598;2023-09-19T12:34:35;64096.41;;;-137.53
64904;BMP280;51401;48.882;12.598;2023-09-19T12:37:10;64098.41;;;-137.53
64904;BMP280;51401;48.882;12.598;2023-09-19T12:39:50;64096.41;;;-137.53
64904;BMP280;51401;48.882;12.598;2023-09-19T12:42:25;64096.41;;;-137.53
64904;BMP280;51401;48.882;12.598;2023-09-19T12:44:57;64098.41;;;-137.53
64904;BMP280;51401;48.882;12.598;2023-09-19T12:47:27;64096.41;;;-137.53
64904;BMP280;51401;48.882;12.598;2023-09-19T12:50:07;64092.44;;;-137.53
64904;BMP280;51401;48.882;12.598;2023-09-19T12:52:51;64096.41;;;-137.53
64904;BMP280;51401;48.882;12.598;2023-09-19T12:55:29;64094.44;;;-137.53
64904;BMP280;51401;48.882;12.598;2023-09-19T13:00:40;64096.41;;;-137.53
64904;BMP280;51401;48.882;12.598;2023-09-19T13:03:29;64094.44;;;-137.53
64904;BMP280;51401;48.882;12.598;2023-09-19T13:05:59;64090.44;;;-137.53
64904;BMP280;51401;48.882;12.598;2023-09-19T13:08:37;64088.47;;;-137.53
64904;BMP280;51401;48.882;12.598;2023-09-19T13:16:21;64086.47;;;-137.53
64904;BMP280;51401;48.882;12.598;2023-09-19T13:18:58;64088.47;;;-137.53
64904;BMP280;51401;48.882;12.598;2023-09-19T13:21:31;64088.47;;;-137.53
64904;BMP280;51401;48.882;12.598;2023-09-19T13:24:20;64084.50;;;-137.53
64904;BMP280;51401;48.882;12.598;2023-09-19T13:26:47;64088.47;;;-137.53
64904;BMP280;51401;48.882;12.598;2023-09-19T13:29:13;64088.47;;;-137.53
64904;BMP280;51401;48.882;12.598;2023-09-19T13:31:45;64090.44;;;-137.53
64904;BMP280;51401;48.882;12.598;2023-09-19T13:34:11;64090.44;;;-137.53
64904;BMP280;51401;48.882;12.598;2023-09-19T13:36:36;64088.47;;;-137.53
64904;BMP280;51401;48.882;12.598;2023-09-19T13:39:02;64088.47;;;-137.53
64904;BMP280;51401;48.882;12.598;2023-09-19T13:41:27;64088.47;;;-137.53
64904;BMP280;51401;48.882;12.598;2023-09-19T13:43:54;64088.47;;;-137.53
64904;BMP280;51401;48.882;12.598;2023-09-19T13:46:22;64092.44;;;-137.53
64904;BMP280;51401;48.882;12.598;2023-09-19T13:48:51;64092.44;;;-137.53
64904;BMP280;51401;48.882;12.598;2023-09-19T13:51:20;64094.44;;;-137.53
64904;BMP280;51401;48.882;12.598;2023-09-19T13:53:51;64092.44;;;-137.53
64904;BMP280;51401;48.882;12.598;2023-09-19T13:56:16;64092.44;;;-137.53
64904;BMP280;51401;48.882;12.598;2023-09-19T13:58:42;64090.44;;;-137.53
64904;BMP280;51401;48.882;12.598;2023-09-19T14:01:07;64088.47;;;-137.53
64904;BMP280;51401;48.882;12.598;2023-09-19T14:03:38;64088.47;;;-137.53
64904;BMP280;51401;48.882;12.598;2023-09-19T14:06:04;64088.47;;;-137.53
64904;BMP280;51401;48.882;12.598;2023-09-19T14:08:29;64086.47;;;-137.53
64904;BMP280;51401;48.882;12.598;2023-09-19T14:10:56;64088.47;;;-137.53